Terminal Aerodrome Forecast
Issued by NWS Cleveland, OH

Home | Current Version | Previous Version | Graphics & Text | Print | Product List | Glossary On
Versions: 1 2 3 4 5 6 7 8 9 10 11 12 13 14 15
000
FTUS41 KCLE 271300 AAA
TAFMFD
TAF AMD
KMFD 271300Z 2713/2812 32006KT P6SM SCT018
      TEMPO 2713/2715 BKN018
     FM271500 33006KT P6SM BKN025
     FM271700 36005KT P6SM BKN035
     FM280100 VRB03KT P6SM FEW040
      TEMPO 2810/2812 3SM BR=

USA.gov is the U.S. government's official web portal to all federal, state and local government web resources and services.